sensor_id;sensor_type;location;lat;lon;timestamp;pressure;altitude;pressure_sealevel;temperature;humidity
74966;BME280;63522;47.928;21.042;2022-09-24T00:00:54;100466.48;;;24.85;46.25
74966;BME280;63522;47.928;21.042;2022-09-24T00:03:21;100467.95;;;24.87;46.43
74966;BME280;63522;47.928;21.042;2022-09-24T00:05:50;100465.34;;;24.89;46.37
74966;BME280;63522;47.928;21.042;2022-09-24T00:08:16;100464.34;;;24.89;46.32
74966;BME280;63522;47.928;21.042;2022-09-24T00:10:44;100457.76;;;24.91;46.25
74966;BME280;63522;47.928;21.042;2022-09-24T00:13:13;100457.52;;;24.93;46.33
74966;BME280;63522;47.928;21.042;2022-09-24T00:15:42;100456.91;;;24.95;46.18
74966;BME280;63522;47.928;21.042;2022-09-24T00:18:08;100453.94;;;24.97;46.21
74966;BME280;63522;47.928;21.042;2022-09-24T00:20:37;100455.47;;;24.98;46.29
74966;BME280;63522;47.928;21.042;2022-09-24T00:23:03;100452.59;;;25.00;46.23
74966;BME280;63522;47.928;21.042;2022-09-24T00:25:28;100452.18;;;25.01;46.19
74966;BME280;63522;47.928;21.042;2022-09-24T00:28:14;100458.45;;;25.02;46.14
74966;BME280;63522;47.928;21.042;2022-09-24T00:30:41;100461.31;;;25.03;46.19
74966;BME280;63522;47.928;21.042;2022-09-24T00:33:08;100465.52;;;25.02;46.13
74966;BME280;63522;47.928;21.042;2022-09-24T00:35:35;100459.20;;;25.02;46.22
74966;BME280;63522;47.928;21.042;2022-09-24T00:38:01;100456.58;;;25.00;46.15
74966;BME280;63522;47.928;21.042;2022-09-24T00:40:28;100456.88;;;25.00;46.16
74966;BME280;63522;47.928;21.042;2022-09-24T00:42:53;100454.90;;;25.00;46.20
74966;BME280;63522;47.928;21.042;2022-09-24T00:45:19;100450.19;;;25.00;46.15
74966;BME280;63522;47.928;21.042;2022-09-24T00:47:44;100448.70;;;24.99;46.09
74966;BME280;63522;47.928;21.042;2022-09-24T00:50:36;100447.34;;;24.97;46.13
74966;BME280;63522;47.928;21.042;2022-09-24T00:53:19;100448.30;;;24.97;46.28
74966;BME280;63522;47.928;21.042;2022-09-24T00:55:48;100443.45;;;24.96;46.19
74966;BME280;63522;47.928;21.042;2022-09-24T00:58:16;100450.89;;;24.97;46.16
74966;BME280;63522;47.928;21.042;2022-09-24T01:00:42;100447.55;;;24.95;46.25
74966;BME280;63522;47.928;21.042;2022-09-24T01:03:36;100447.09;;;24.95;46.12
74966;BME280;63522;47.928;21.042;2022-09-24T01:06:07;100441.45;;;24.95;46.17
74966;BME280;63522;47.928;21.042;2022-09-24T01:08:33;100437.89;;;24.95;46.07
74966;BME280;63522;47.928;21.042;2022-09-24T01:16:36;100433.02;;;24.99;46.08
74966;BME280;63522;47.928;21.042;2022-09-24T01:21:51;100428.98;;;25.01;45.96
74966;BME280;63522;47.928;21.042;2022-09-24T01:25:00;100424.89;;;25.00;45.87
74966;BME280;63522;47.928;21.042;2022-09-24T01:30:19;100424.55;;;24.97;45.98
74966;BME280;63522;47.928;21.042;2022-09-24T01:32:49;100427.51;;;24.97;45.86
74966;BME280;63522;47.928;21.042;2022-09-24T01:38:03;100424.77;;;24.95;45.98
74966;BME280;63522;47.928;21.042;2022-09-24T01:40:31;100424.52;;;24.95;46.10
74966;BME280;63522;47.928;21.042;2022-09-24T01:42:58;100417.70;;;24.94;45.98
74966;BME280;63522;47.928;21.042;2022-09-24T01:45:24;100415.08;;;24.93;45.92
74966;BME280;63522;47.928;21.042;2022-09-24T01:47:54;100414.05;;;24.91;46.01
74966;BME280;63522;47.928;21.042;2022-09-24T01:50:23;100415.17;;;24.91;46.06
74966;BME280;63522;47.928;21.042;2022-09-24T01:53:02;100411.09;;;24.89;46.07
74966;BME280;63522;47.928;21.042;2022-09-24T01:55:34;100411.66;;;24.88;46.08
74966;BME280;63522;47.928;21.042;2022-09-24T01:58:14;100413.34;;;24.88;46.01
74966;BME280;63522;47.928;21.042;2022-09-24T02:00:43;100411.86;;;24.87;46.11
74966;BME280;63522;47.928;21.042;2022-09-24T02:03:14;100409.55;;;24.86;46.13
74966;BME280;63522;47.928;21.042;2022-09-24T02:06:09;100407.19;;;24.86;46.36
74966;BME280;63522;47.928;21.042;2022-09-24T02:08:42;100413.27;;;24.86;46.18
74966;BME280;63522;47.928;21.042;2022-09-24T02:11:12;100412.44;;;24.85;46.37
74966;BME280;63522;47.928;21.042;2022-09-24T02:13:46;100416.17;;;24.86;46.59
74966;BME280;63522;47.928;21.042;2022-09-24T02:16:19;100417.86;;;24.86;46.43
74966;BME280;63522;47.928;21.042;2022-09-24T02:18:47;100419.40;;;24.85;46.43
74966;BME280;63522;47.928;21.042;2022-09-24T02:21:17;100415.30;;;24.86;46.57
74966;BME280;63522;47.928;21.042;2022-09-24T02:23:51;100411.17;;;24.85;46.40
74966;BME280;63522;47.928;21.042;2022-09-24T02:26:19;100411.67;;;24.85;46.70
74966;BME280;63522;47.928;21.042;2022-09-24T02:28:44;100413.73;;;24.85;46.57
74966;BME280;63522;47.928;21.042;2022-09-24T02:31:13;100420.38;;;24.86;46.65
74966;BME280;63522;47.928;21.042;2022-09-24T02:33:43;100420.00;;;24.86;46.52
74966;BME280;63522;47.928;21.042;2022-09-24T02:36:28;100424.54;;;24.86;46.65
74966;BME280;63522;47.928;21.042;2022-09-24T02:38:55;100420.17;;;24.86;46.53
74966;BME280;63522;47.928;21.042;2022-09-24T02:41:21;100420.25;;;24.85;46.81
74966;BME280;63522;47.928;21.042;2022-09-24T02:43:49;100421.30;;;24.85;46.81
74966;BME280;63522;47.928;21.042;2022-09-24T02:46:15;100421.44;;;24.86;46.73
74966;BME280;63522;47.928;21.042;2022-09-24T02:48:41;100418.70;;;24.86;46.85
74966;BME280;63522;47.928;21.042;2022-09-24T02:51:06;100418.44;;;24.85;46.80
74966;BME280;63522;47.928;21.042;2022-09-24T02:53:32;100419.29;;;24.86;46.74
74966;BME280;63522;47.928;21.042;2022-09-24T02:55:59;100413.18;;;24.85;46.67
74966;BME280;63522;47.928;21.042;2022-09-24T02:58:28;100417.17;;;24.85;46.94
74966;BME280;63522;47.928;21.042;2022-09-24T03:00:54;100417.21;;;24.85;46.83
74966;BME280;63522;47.928;21.042;2022-09-24T03:03:20;100412.05;;;24.84;46.84
74966;BME280;63522;47.928;21.042;2022-09-24T03:05:47;100419.89;;;24.84;46.93
74966;BME280;63522;47.928;21.042;2022-09-24T03:08:13;100420.07;;;24.84;46.99
74966;BME280;63522;47.928;21.042;2022-09-24T03:10:38;100419.42;;;24.83;46.99
74966;BME280;63522;47.928;21.042;2022-09-24T03:13:04;100420.26;;;24.82;47.13
74966;BME280;63522;47.928;21.042;2022-09-24T03:15:29;100415.34;;;24.82;47.09
74966;BME280;63522;47.928;21.042;2022-09-24T03:17:55;100415.34;;;24.82;47.22
74966;BME280;63522;47.928;21.042;2022-09-24T03:20:20;100413.98;;;24.82;47.03
74966;BME280;63522;47.928;21.042;2022-09-24T03:22:50;100412.52;;;24.82;47.20
74966;BME280;63522;47.928;21.042;2022-09-24T03:25:16;100408.60;;;24.81;47.28
74966;BME280;63522;47.928;21.042;2022-09-24T03:27:42;100405.57;;;24.80;47.10
74966;BME280;63522;47.928;21.042;2022-09-24T03:30:07;100405.23;;;24.80;47.15
74966;BME280;63522;47.928;21.042;2022-09-24T03:32:51;100402.75;;;24.80;47.26
74966;BME280;63522;47.928;21.042;2022-09-24T03:35:17;100403.58;;;24.79;47.14
74966;BME280;63522;47.928;21.042;2022-09-24T03:37:43;100398.45;;;24.79;47.38
74966;BME280;63522;47.928;21.042;2022-09-24T03:40:10;100399.83;;;24.78;47.30
74966;BME280;63522;47.928;21.042;2022-09-24T03:42:36;100407.74;;;24.79;47.40
74966;BME280;63522;47.928;21.042;2022-09-24T03:45:01;100404.64;;;24.79;47.20
74966;BME280;63522;47.928;21.042;2022-09-24T03:47:27;100405.13;;;24.78;47.24
74966;BME280;63522;47.928;21.042;2022-09-24T03:49:55;100406.38;;;24.78;47.26
74966;BME280;63522;47.928;21.042;2022-09-24T03:52:20;100407.77;;;24.77;47.27
74966;BME280;63522;47.928;21.042;2022-09-24T03:54:45;100406.38;;;24.78;47.24
74966;BME280;63522;47.928;21.042;2022-09-24T03:57:11;100402.02;;;24.78;47.27
74966;BME280;63522;47.928;21.042;2022-09-24T03:59:42;100402.10;;;24.78;47.05
74966;BME280;63522;47.928;21.042;2022-09-24T04:02:09;100403.79;;;24.79;47.10
74966;BME280;63522;47.928;21.042;2022-09-24T04:04:35;100406.63;;;24.78;47.10
74966;BME280;63522;47.928;21.042;2022-09-24T04:07:00;100411.48;;;24.78;47.21
74966;BME280;63522;47.928;21.042;2022-09-24T04:09:26;100410.38;;;24.78;47.08
74966;BME280;63522;47.928;21.042;2022-09-24T04:11:51;100413.70;;;24.78;47.06
74966;BME280;63522;47.928;21.042;2022-09-24T04:14:18;100414.75;;;24.78;47.17
74966;BME280;63522;47.928;21.042;2022-09-24T04:16:44;100408.33;;;24.79;47.14
74966;BME280;63522;47.928;21.042;2022-09-24T04:19:13;100406.93;;;24.78;47.10
74966;BME280;63522;47.928;21.042;2022-09-24T04:21:44;100407.42;;;24.77;46.96
74966;BME280;63522;47.928;21.042;2022-09-24T04:24:09;100410.12;;;24.78;47.25
74966;BME280;63522;47.928;21.042;2022-09-24T04:26:35;100415.08;;;24.77;47.18
74966;BME280;63522;47.928;21.042;2022-09-24T04:29:00;100418.70;;;24.78;46.94
74966;BME280;63522;47.928;21.042;2022-09-24T04:31:25;100416.67;;;24.78;47.21
74966;BME280;63522;47.928;21.042;2022-09-24T04:33:52;100414.15;;;24.78;47.10
74966;BME280;63522;47.928;21.042;2022-09-24T04:36:18;100417.80;;;24.77;47.08
74966;BME280;63522;47.928;21.042;2022-09-24T04:38:43;100415.45;;;24.77;47.02
74966;BME280;63522;47.928;21.042;2022-09-24T04:41:10;100410.74;;;24.77;47.23
74966;BME280;63522;47.928;21.042;2022-09-24T04:43:36;100412.80;;;24.77;47.14
74966;BME280;63522;47.928;21.042;2022-09-24T04:46:02;100410.02;;;24.77;47.14
74966;BME280;63522;47.928;21.042;2022-09-24T04:48:29;100419.31;;;24.77;47.26
74966;BME280;63522;47.928;21.042;2022-09-24T04:50:55;100422.59;;;24.77;47.10
74966;BME280;63522;47.928;21.042;2022-09-24T04:53:20;100413.01;;;24.76;47.06
74966;BME280;63522;47.928;21.042;2022-09-24T04:55:47;100411.38;;;24.78;47.09
74966;BME280;63522;47.928;21.042;2022-09-24T04:58:13;100408.42;;;24.77;47.14
74966;BME280;63522;47.928;21.042;2022-09-24T05:00:38;100410.73;;;24.77;47.26
74966;BME280;63522;47.928;21.042;2022-09-24T05:03:04;100412.51;;;24.77;47.25
74966;BME280;63522;47.928;21.042;2022-09-24T05:05:31;100412.05;;;24.77;47.17
74966;BME280;63522;47.928;21.042;2022-09-24T05:07:57;100414.56;;;24.77;47.07
74966;BME280;63522;47.928;21.042;2022-09-24T05:10:24;100413.52;;;24.78;47.10
74966;BME280;63522;47.928;21.042;2022-09-24T05:12:50;100413.52;;;24.78;47.01
74966;BME280;63522;47.928;21.042;2022-09-24T05:15:15;100413.19;;;24.78;47.08
74966;BME280;63522;47.928;21.042;2022-09-24T05:17:43;100412.64;;;24.78;46.99
74966;BME280;63522;47.928;21.042;2022-09-24T05:20:08;100414.38;;;24.78;47.19
74966;BME280;63522;47.928;21.042;2022-09-24T05:22:39;100416.70;;;24.80;47.21
74966;BME280;63522;47.928;21.042;2022-09-24T05:25:05;100415.98;;;24.80;47.01
74966;BME280;63522;47.928;21.042;2022-09-24T05:27:30;100414.40;;;24.81;47.17
74966;BME280;63522;47.928;21.042;2022-09-24T05:29:56;100421.18;;;24.82;47.02
74966;BME280;63522;47.928;21.042;2022-09-24T05:32:21;100414.34;;;24.83;47.06
74966;BME280;63522;47.928;21.042;2022-09-24T05:34:46;100417.30;;;24.84;47.06
74966;BME280;63522;47.928;21.042;2022-09-24T05:37:13;100411.34;;;24.85;47.00
74966;BME280;63522;47.928;21.042;2022-09-24T05:39:39;100413.53;;;24.86;47.03
74966;BME280;63522;47.928;21.042;2022-09-24T05:42:04;100410.02;;;24.87;47.10
74966;BME280;63522;47.928;21.042;2022-09-24T05:44:31;100416.07;;;24.88;47.03
74966;BME280;63522;47.928;21.042;2022-09-24T05:46:57;100415.76;;;24.89;46.92
74966;BME280;63522;47.928;21.042;2022-09-24T05:49:23;100424.70;;;24.89;47.02
74966;BME280;63522;47.928;21.042;2022-09-24T05:51:49;100422.29;;;24.91;47.01
74966;BME280;63522;47.928;21.042;2022-09-24T05:54:16;100419.98;;;24.92;46.84
74966;BME280;63522;47.928;21.042;2022-09-24T05:56:42;100418.70;;;24.93;46.72
74966;BME280;63522;47.928;21.042;2022-09-24T05:59:09;100419.67;;;24.94;46.84
74966;BME280;63522;47.928;21.042;2022-09-24T06:01:34;100424.57;;;24.96;46.71
74966;BME280;63522;47.928;21.042;2022-09-24T06:04:00;100424.81;;;24.97;46.53
74966;BME280;63522;47.928;21.042;2022-09-24T06:06:26;100422.58;;;24.99;46.80
74966;BME280;63522;47.928;21.042;2022-09-24T06:08:52;100422.01;;;25.01;46.72
74966;BME280;63522;47.928;21.042;2022-09-24T06:11:18;100419.24;;;25.03;46.63
74966;BME280;63522;47.928;21.042;2022-09-24T06:13:47;100420.55;;;25.04;46.56
74966;BME280;63522;47.928;21.042;2022-09-24T06:16:12;100419.23;;;25.05;46.65
74966;BME280;63522;47.928;21.042;2022-09-24T06:18:40;100419.71;;;25.07;46.61
74966;BME280;63522;47.928;21.042;2022-09-24T06:21:09;100422.63;;;25.09;46.60
74966;BME280;63522;47.928;21.042;2022-09-24T06:23:36;100426.44;;;25.12;46.62
74966;BME280;63522;47.928;21.042;2022-09-24T06:26:03;100424.56;;;25.12;46.54
74966;BME280;63522;47.928;21.042;2022-09-24T06:28:29;100428.04;;;25.15;46.48
74966;BME280;63522;47.928;21.042;2022-09-24T06:30:58;100429.42;;;25.15;46.33
74966;BME280;63522;47.928;21.042;2022-09-24T06:33:24;100431.87;;;25.16;46.32
74966;BME280;63522;47.928;21.042;2022-09-24T06:35:49;100431.60;;;25.18;46.44
74966;BME280;63522;47.928;21.042;2022-09-24T06:38:16;100429.64;;;25.20;46.26
74966;BME280;63522;47.928;21.042;2022-09-24T06:40:43;100430.79;;;25.22;46.32
74966;BME280;63522;47.928;21.042;2022-09-24T06:43:15;100433.81;;;25.25;46.25
74966;BME280;63522;47.928;21.042;2022-09-24T06:45:42;100444.00;;;25.27;46.30
74966;BME280;63522;47.928;21.042;2022-09-24T06:48:09;100443.90;;;25.29;46.34
74966;BME280;63522;47.928;21.042;2022-09-24T06:50:38;100441.14;;;25.30;46.23
74966;BME280;63522;47.928;21.042;2022-09-24T06:53:05;100449.69;;;25.32;46.21
74966;BME280;63522;47.928;21.042;2022-09-24T06:55:31;100453.08;;;25.34;46.12
74966;BME280;63522;47.928;21.042;2022-09-24T06:58:06;100451.08;;;25.35;46.00
74966;BME280;63522;47.928;21.042;2022-09-24T07:00:32;100452.89;;;25.38;46.24
74966;BME280;63522;47.928;21.042;2022-09-24T07:02:57;100447.88;;;25.41;46.17
74966;BME280;63522;47.928;21.042;2022-09-24T07:05:23;100448.81;;;25.43;46.04
74966;BME280;63522;47.928;21.042;2022-09-24T07:07:48;100448.92;;;25.45;45.90
74966;BME280;63522;47.928;21.042;2022-09-24T07:10:14;100447.77;;;25.47;45.97
74966;BME280;63522;47.928;21.042;2022-09-24T07:12:41;100446.91;;;25.49;46.01
74966;BME280;63522;47.928;21.042;2022-09-24T07:15:08;100447.79;;;25.51;45.99
74966;BME280;63522;47.928;21.042;2022-09-24T07:17:34;100452.36;;;25.54;45.93
74966;BME280;63522;47.928;21.042;2022-09-24T07:20:00;100452.16;;;25.55;45.83
74966;BME280;63522;47.928;21.042;2022-09-24T07:22:26;100449.33;;;25.57;45.80
74966;BME280;63522;47.928;21.042;2022-09-24T07:24:51;100453.30;;;25.59;45.80
74966;BME280;63522;47.928;21.042;2022-09-24T07:27:17;100455.00;;;25.62;45.63
74966;BME280;63522;47.928;21.042;2022-09-24T07:29:46;100450.30;;;25.63;45.78
74966;BME280;63522;47.928;21.042;2022-09-24T07:32:11;100451.55;;;25.65;45.72
74966;BME280;63522;47.928;21.042;2022-09-24T07:34:37;100451.94;;;25.66;45.38
74966;BME280;63522;47.928;21.042;2022-09-24T07:37:02;100457.98;;;25.67;45.60
74966;BME280;63522;47.928;21.042;2022-09-24T07:39:27;100456.80;;;25.68;45.57
74966;BME280;63522;47.928;21.042;2022-09-24T07:41:53;100463.73;;;25.69;45.69
74966;BME280;63522;47.928;21.042;2022-09-24T07:44:18;100466.00;;;25.70;45.53
74966;BME280;63522;47.928;21.042;2022-09-24T07:46:50;100466.60;;;25.71;45.52
74966;BME280;63522;47.928;21.042;2022-09-24T07:49:15;100466.98;;;25.72;45.63
74966;BME280;63522;47.928;21.042;2022-09-24T07:51:41;100474.27;;;25.72;45.41
74966;BME280;63522;47.928;21.042;2022-09-24T07:54:07;100473.55;;;25.74;45.38
74966;BME280;63522;47.928;21.042;2022-09-24T07:56:35;100470.58;;;25.74;45.44
74966;BME280;63522;47.928;21.042;2022-09-24T07:59:00;100469.35;;;25.74;45.35
74966;BME280;63522;47.928;21.042;2022-09-24T08:01:26;100472.22;;;25.74;45.31
74966;BME280;63522;47.928;21.042;2022-09-24T08:03:52;100475.20;;;25.74;45.28
74966;BME280;63522;47.928;21.042;2022-09-24T08:06:18;100469.71;;;25.72;45.19
74966;BME280;63522;47.928;21.042;2022-09-24T08:08:44;100471.82;;;25.72;45.42
74966;BME280;63522;47.928;21.042;2022-09-24T08:11:12;100469.21;;;25.72;45.38
74966;BME280;63522;47.928;21.042;2022-09-24T08:13:38;100466.16;;;25.70;45.52
74966;BME280;63522;47.928;21.042;2022-09-24T08:16:05;100467.80;;;25.70;45.37
74966;BME280;63522;47.928;21.042;2022-09-24T08:18:31;100475.20;;;25.69;45.40
74966;BME280;63522;47.928;21.042;2022-09-24T08:20:57;100479.72;;;25.70;45.27
74966;BME280;63522;47.928;21.042;2022-09-24T08:23:24;100479.42;;;25.69;45.53
74966;BME280;63522;47.928;21.042;2022-09-24T08:25:53;100483.04;;;25.69;45.44
74966;BME280;63522;47.928;21.042;2022-09-24T08:28:18;100483.15;;;25.69;45.56
74966;BME280;63522;47.928;21.042;2022-09-24T08:30:44;100488.45;;;25.68;45.47
74966;BME280;63522;47.928;21.042;2022-09-24T08:33:10;100491.52;;;25.69;45.54
74966;BME280;63522;47.928;21.042;2022-09-24T08:35:36;100492.11;;;25.69;45.58
74966;BME280;63522;47.928;21.042;2022-09-24T08:38:04;100493.34;;;25.69;45.43
74966;BME280;63522;47.928;21.042;2022-09-24T08:40:35;100494.72;;;25.68;45.42
74966;BME280;63522;47.928;21.042;2022-09-24T08:43:28;100503.48;;;25.69;45.35
74966;BME280;63522;47.928;21.042;2022-09-24T08:46:01;100503.48;;;25.69;45.51
74966;BME280;63522;47.928;21.042;2022-09-24T08:48:50;100502.92;;;25.68;45.41
74966;BME280;63522;47.928;21.042;2022-09-24T08:51:19;100503.13;;;25.68;45.35
74966;BME280;63522;47.928;21.042;2022-09-24T08:53:51;100505.70;;;25.68;45.44
74966;BME280;63522;47.928;21.042;2022-09-24T08:56:25;100505.95;;;25.67;45.22
74966;BME280;63522;47.928;21.042;2022-09-24T08:58:57;100508.66;;;25.66;45.27
74966;BME280;63522;47.928;21.042;2022-09-24T09:01:42;100511.15;;;25.67;45.50
74966;BME280;63522;47.928;21.042;2022-09-24T09:09:41;100506.98;;;25.65;45.42
74966;BME280;63522;47.928;21.042;2022-09-24T09:12:13;100510.98;;;25.65;45.36
74966;BME280;63522;47.928;21.042;2022-09-24T09:17:23;100498.48;;;25.64;45.37
74966;BME280;63522;47.928;21.042;2022-09-24T09:19:55;100495.65;;;25.63;45.37
74966;BME280;63522;47.928;21.042;2022-09-24T09:22:25;100490.67;;;25.62;45.40
74966;BME280;63522;47.928;21.042;2022-09-24T09:24:54;100491.27;;;25.63;45.54
74966;BME280;63522;47.928;21.042;2022-09-24T09:27:21;100485.52;;;25.64;45.69
74966;BME280;63522;47.928;21.042;2022-09-24T09:29:51;100483.58;;;25.64;45.46
74966;BME280;63522;47.928;21.042;2022-09-24T09:32:46;100477.30;;;25.63;45.68
74966;BME280;63522;47.928;21.042;2022-09-24T09:40:24;100472.99;;;25.61;43.92
74966;BME280;63522;47.928;21.042;2022-09-24T09:42:58;100479.14;;;25.47;40.39
74966;BME280;63522;47.928;21.042;2022-09-24T09:48:27;100479.05;;;25.17;41.22
74966;BME280;63522;47.928;21.042;2022-09-24T09:51:00;100477.20;;;25.16;42.58
74966;BME280;63522;47.928;21.042;2022-09-24T09:53:30;100470.85;;;25.16;42.63
74966;BME280;63522;47.928;21.042;2022-09-24T09:56:02;100473.38;;;25.18;43.13
74966;BME280;63522;47.928;21.042;2022-09-24T09:58:30;100470.97;;;25.20;43.48
74966;BME280;63522;47.928;21.042;2022-09-24T10:01:08;100473.13;;;25.21;43.44
74966;BME280;63522;47.928;21.042;2022-09-24T10:06:21;100469.80;;;25.24;43.95
74966;BME280;63522;47.928;21.042;2022-09-24T10:08:47;100472.41;;;25.25;44.09
74966;BME280;63522;47.928;21.042;2022-09-24T10:11:15;100467.66;;;25.25;44.23
74966;BME280;63522;47.928;21.042;2022-09-24T10:13:41;100471.77;;;25.27;44.43
74966;BME280;63522;47.928;21.042;2022-09-24T10:16:09;100469.82;;;25.27;44.37
74966;BME280;63522;47.928;21.042;2022-09-24T10:18:45;100470.67;;;25.27;44.55
74966;BME280;63522;47.928;21.042;2022-09-24T10:21:14;100468.31;;;25.27;44.59
74966;BME280;63522;47.928;21.042;2022-09-24T10:23:49;100467.48;;;25.28;44.78
74966;BME280;63522;47.928;21.042;2022-09-24T10:26:15;100463.36;;;25.29;44.69
74966;BME280;63522;47.928;21.042;2022-09-24T10:28:49;100463.50;;;25.29;44.67
74966;BME280;63522;47.928;21.042;2022-09-24T10:31:36;100462.44;;;25.29;44.84
74966;BME280;63522;47.928;21.042;2022-09-24T10:34:04;100464.08;;;25.29;44.90
74966;BME280;63522;47.928;21.042;2022-09-24T10:36:50;100461.73;;;25.29;44.86
74966;BME280;63522;47.928;21.042;2022-09-24T10:39:15;100458.07;;;25.29;45.06
74966;BME280;63522;47.928;21.042;2022-09-24T10:41:49;100447.46;;;25.28;44.96
74966;BME280;63522;47.928;21.042;2022-09-24T10:44:15;100452.46;;;25.27;44.78
74966;BME280;63522;47.928;21.042;2022-09-24T11:00:31;100435.05;;;25.24;45.07
74966;BME280;63522;47.928;21.042;2022-09-24T11:03:13;100434.84;;;25.23;45.18
74966;BME280;63522;47.928;21.042;2022-09-24T11:05:52;100426.13;;;25.21;45.09
74966;BME280;63522;47.928;21.042;2022-09-24T11:08:52;100427.84;;;25.20;45.11
74966;BME280;63522;47.928;21.042;2022-09-24T11:19:33;100423.80;;;25.19;45.31
74966;BME280;63522;47.928;21.042;2022-09-24T11:25:29;100415.23;;;25.18;45.36
74966;BME280;63522;47.928;21.042;2022-09-24T11:39:03;100401.83;;;25.17;45.39
74966;BME280;63522;47.928;21.042;2022-09-24T11:47:02;100392.80;;;25.15;45.55
74966;BME280;63522;47.928;21.042;2022-09-24T11:52:55;100402.55;;;25.15;45.70
74966;BME280;63522;47.928;21.042;2022-09-24T11:55:44;100407.89;;;25.14;45.76
74966;BME280;63522;47.928;21.042;2022-09-24T11:58:17;100410.50;;;25.15;45.82
74966;BME280;63522;47.928;21.042;2022-09-24T12:01:43;100408.60;;;25.14;45.66
74966;BME280;63522;47.928;21.042;2022-09-24T12:04:15;100404.27;;;25.14;45.79
74966;BME280;63522;47.928;21.042;2022-09-24T12:06:49;100402.13;;;25.14;45.81
74966;BME280;63522;47.928;21.042;2022-09-24T12:12:24;100404.93;;;25.13;45.80
74966;BME280;63522;47.928;21.042;2022-09-24T12:17:45;100396.57;;;25.13;45.88
74966;BME280;63522;47.928;21.042;2022-09-24T12:20:30;100396.48;;;25.12;45.90
74966;BME280;63522;47.928;21.042;2022-09-24T12:23:05;100396.14;;;25.12;45.89
74966;BME280;63522;47.928;21.042;2022-09-24T12:25:42;100397.47;;;25.10;45.47
74966;BME280;63522;47.928;21.042;2022-09-24T12:28:17;100391.82;;;25.09;45.15
74966;BME280;63522;47.928;21.042;2022-09-24T12:31:10;100385.34;;;25.08;45.20
74966;BME280;63522;47.928;21.042;2022-09-24T12:34:06;100382.86;;;25.08;45.38
74966;BME280;63522;47.928;21.042;2022-09-24T12:36:56;100384.45;;;25.08;45.34
74966;BME280;63522;47.928;21.042;2022-09-24T12:39:32;100377.13;;;25.07;45.37
74966;BME280;63522;47.928;21.042;2022-09-24T12:42:07;100367.75;;;25.06;45.77
74966;BME280;63522;47.928;21.042;2022-09-24T12:44:53;100364.64;;;25.06;45.67
74966;BME280;63522;47.928;21.042;2022-09-24T12:47:22;100356.95;;;25.07;45.63
74966;BME280;63522;47.928;21.042;2022-09-24T12:49:54;100360.10;;;25.06;45.92
74966;BME280;63522;47.928;21.042;2022-09-24T12:52:30;100359.04;;;25.05;45.84
74966;BME280;63522;47.928;21.042;2022-09-24T12:54:59;100356.14;;;25.05;45.70
74966;BME280;63522;47.928;21.042;2022-09-24T12:57:39;100353.02;;;25.04;45.93
74966;BME280;63522;47.928;21.042;2022-09-24T13:02:56;100355.20;;;25.03;46.16
74966;BME280;63522;47.928;21.042;2022-09-24T13:08:02;100344.61;;;25.04;46.52
74966;BME280;63522;47.928;21.042;2022-09-24T13:10:33;100340.27;;;25.03;46.83
74966;BME280;63522;47.928;21.042;2022-09-24T13:13:02;100338.68;;;25.03;46.86
74966;BME280;63522;47.928;21.042;2022-09-24T13:15:34;100337.21;;;25.03;46.89
74966;BME280;63522;47.928;21.042;2022-09-24T13:20:38;100341.44;;;25.01;46.93
74966;BME280;63522;47.928;21.042;2022-09-24T13:25:33;100343.32;;;25.01;46.98
74966;BME280;63522;47.928;21.042;2022-09-24T13:28:19;100339.44;;;25.00;47.09
74966;BME280;63522;47.928;21.042;2022-09-24T13:30:50;100338.19;;;25.00;46.94
74966;BME280;63522;47.928;21.042;2022-09-24T13:33:27;100340.92;;;25.00;47.02
74966;BME280;63522;47.928;21.042;2022-09-24T13:36:17;100342.27;;;24.99;47.20
74966;BME280;63522;47.928;21.042;2022-09-24T13:38:57;100342.23;;;24.98;47.28
74966;BME280;63522;47.928;21.042;2022-09-24T13:41:36;100344.35;;;24.96;47.17
74966;BME280;63522;47.928;21.042;2022-09-24T13:44:32;100336.41;;;24.96;47.51
74966;BME280;63522;47.928;21.042;2022-09-24T13:47:29;100335.69;;;24.96;47.76
74966;BME280;63522;47.928;21.042;2022-09-24T13:50:21;100335.93;;;24.95;47.68
74966;BME280;63522;47.928;21.042;2022-09-24T13:55:20;100324.82;;;24.94;47.89
74966;BME280;63522;47.928;21.042;2022-09-24T13:57:48;100325.19;;;24.92;47.89
74966;BME280;63522;47.928;21.042;2022-09-24T14:00:19;100325.36;;;24.93;47.96
74966;BME280;63522;47.928;21.042;2022-09-24T14:02:56;100322.02;;;24.90;47.97
74966;BME280;63522;47.928;21.042;2022-09-24T14:05:25;100320.40;;;24.88;47.96
74966;BME280;63522;47.928;21.042;2022-09-24T14:08:02;100317.34;;;24.88;48.16
74966;BME280;63522;47.928;21.042;2022-09-24T14:10:29;100318.79;;;24.87;48.15
74966;BME280;63522;47.928;21.042;2022-09-24T14:13:22;100309.98;;;24.88;48.25
74966;BME280;63522;47.928;21.042;2022-09-24T14:16:21;100300.42;;;24.87;48.23
74966;BME280;63522;47.928;21.042;2022-09-24T14:18:47;100308.54;;;24.87;48.23
74966;BME280;63522;47.928;21.042;2022-09-24T14:21:30;100310.56;;;24.88;48.19
74966;BME280;63522;47.928;21.042;2022-09-24T14:24:21;100303.46;;;24.89;48.24
74966;BME280;63522;47.928;21.042;2022-09-24T14:26:54;100307.75;;;24.88;48.14
74966;BME280;63522;47.928;21.042;2022-09-24T14:29:25;100303.83;;;24.87;48.13
74966;BME280;63522;47.928;21.042;2022-09-24T14:31:55;100306.86;;;24.88;48.26
74966;BME280;63522;47.928;21.042;2022-09-24T14:34:39;100307.67;;;24.89;48.27